sensor_id;sensor_type;location;lat;lon;timestamp;P1;durP1;ratioP1;P2;durP2;ratioP2
43933;SDS011;59081;42.706;23.306;2022-07-21T00:01:47;8.05;;;2.55;;
43933;SDS011;59081;42.706;23.306;2022-07-21T00:04:13;9.02;;;2.97;;
43933;SDS011;59081;42.706;23.306;2022-07-21T00:06:41;3.60;;;2.35;;
43933;SDS011;59081;42.706;23.306;2022-07-21T00:09:07;5.90;;;3.70;;
43933;SDS011;59081;42.706;23.306;2022-07-21T00:11:34;3.78;;;3.00;;
43933;SDS011;59081;42.706;23.306;2022-07-21T00:14:00;4.60;;;2.50;;
43933;SDS011;59081;42.706;23.306;2022-07-21T00:16:25;8.27;;;3.33;;
43933;SDS011;59081;42.706;23.306;2022-07-21T00:18:51;4.40;;;2.47;;
43933;SDS011;59081;42.706;23.306;2022-07-21T00:21:16;3.83;;;2.88;;
43933;SDS011;59081;42.706;23.306;2022-07-21T00:23:45;5.97;;;2.20;;
43933;SDS011;59081;42.706;23.306;2022-07-21T00:26:10;2.72;;;2.20;;
43933;SDS011;59081;42.706;23.306;2022-07-21T00:28:36;6.28;;;2.65;;
43933;SDS011;59081;42.706;23.306;2022-07-21T00:31:02;7.13;;;2.55;;
43933;SDS011;59081;42.706;23.306;2022-07-21T00:33:27;2.92;;;1.90;;
43933;SDS011;59081;42.706;23.306;2022-07-21T00:35:53;2.85;;;2.05;;
43933;SDS011;59081;42.706;23.306;2022-07-21T00:38:19;2.72;;;2.08;;
43933;SDS011;59081;42.706;23.306;2022-07-21T00:40:47;4.30;;;2.30;;
43933;SDS011;59081;42.706;23.306;2022-07-21T00:43:15;5.93;;;2.38;;
43933;SDS011;59081;42.706;23.306;2022-07-21T00:45:41;2.97;;;2.33;;
43933;SDS011;59081;42.706;23.306;2022-07-21T00:48:07;5.88;;;2.30;;
43933;SDS011;59081;42.706;23.306;2022-07-21T00:50:33;4.68;;;2.13;;
43933;SDS011;59081;42.706;23.306;2022-07-21T00:52:59;2.72;;;2.25;;
43933;SDS011;59081;42.706;23.306;2022-07-21T00:55:25;3.20;;;2.28;;
43933;SDS011;59081;42.706;23.306;2022-07-21T00:57:51;5.18;;;2.10;;
43933;SDS011;59081;42.706;23.306;2022-07-21T01:00:20;4.43;;;2.40;;
43933;SDS011;59081;42.706;23.306;2022-07-21T01:02:48;3.92;;;2.83;;
43933;SDS011;59081;42.706;23.306;2022-07-21T01:05:14;3.92;;;2.60;;
43933;SDS011;59081;42.706;23.306;2022-07-21T01:07:44;4.00;;;2.33;;
43933;SDS011;59081;42.706;23.306;2022-07-21T01:10:13;5.15;;;2.55;;
43933;SDS011;59081;42.706;23.306;2022-07-21T01:12:42;2.58;;;2.08;;
43933;SDS011;59081;42.706;23.306;2022-07-21T01:15:09;5.28;;;2.55;;
43933;SDS011;59081;42.706;23.306;2022-07-21T01:17:41;2.80;;;2.22;;
43933;SDS011;59081;42.706;23.306;2022-07-21T01:20:09;4.53;;;2.60;;
43933;SDS011;59081;42.706;23.306;2022-07-21T01:22:37;6.50;;;2.22;;
43933;SDS011;59081;42.706;23.306;2022-07-21T01:25:07;4.40;;;2.42;;
43933;SDS011;59081;42.706;23.306;2022-07-21T01:27:34;5.55;;;2.88;;
43933;SDS011;59081;42.706;23.306;2022-07-21T01:30:02;3.85;;;2.13;;
43933;SDS011;59081;42.706;23.306;2022-07-21T01:32:29;7.40;;;2.95;;
43933;SDS011;59081;42.706;23.306;2022-07-21T01:34:55;4.75;;;2.67;;
43933;SDS011;59081;42.706;23.306;2022-07-21T01:37:23;3.08;;;2.22;;
43933;SDS011;59081;42.706;23.306;2022-07-21T01:39:56;3.83;;;1.90;;
43933;SDS011;59081;42.706;23.306;2022-07-21T01:42:40;2.92;;;2.28;;
43933;SDS011;59081;42.706;23.306;2022-07-21T01:45:06;5.20;;;2.17;;
43933;SDS011;59081;42.706;23.306;2022-07-21T01:47:33;5.85;;;2.55;;
43933;SDS011;59081;42.706;23.306;2022-07-21T01:50:00;5.03;;;2.63;;
43933;SDS011;59081;42.706;23.306;2022-07-21T01:52:26;3.30;;;2.42;;
43933;SDS011;59081;42.706;23.306;2022-07-21T01:54:51;3.72;;;2.55;;
43933;SDS011;59081;42.706;23.306;2022-07-21T01:57:17;5.20;;;3.53;;
43933;SDS011;59081;42.706;23.306;2022-07-21T01:59:43;6.00;;;3.60;;
43933;SDS011;59081;42.706;23.306;2022-07-21T02:02:09;7.72;;;4.00;;
43933;SDS011;59081;42.706;23.306;2022-07-21T02:04:35;8.57;;;5.18;;
43933;SDS011;59081;42.706;23.306;2022-07-21T02:07:03;8.07;;;5.20;;
43933;SDS011;59081;42.706;23.306;2022-07-21T02:09:29;7.13;;;4.55;;
43933;SDS011;59081;42.706;23.306;2022-07-21T02:11:55;5.03;;;4.10;;
43933;SDS011;59081;42.706;23.306;2022-07-21T02:14:21;7.93;;;4.20;;
43933;SDS011;59081;42.706;23.306;2022-07-21T02:16:46;8.50;;;3.95;;
43933;SDS011;59081;42.706;23.306;2022-07-21T02:19:15;6.20;;;3.70;;
43933;SDS011;59081;42.706;23.306;2022-07-21T02:21:44;6.43;;;3.08;;
43933;SDS011;59081;42.706;23.306;2022-07-21T02:24:18;10.57;;;2.65;;
43933;SDS011;59081;42.706;23.306;2022-07-21T02:26:44;6.95;;;2.88;;
43933;SDS011;59081;42.706;23.306;2022-07-21T02:29:09;4.88;;;2.85;;
43933;SDS011;59081;42.706;23.306;2022-07-21T02:31:35;5.55;;;3.55;;
43933;SDS011;59081;42.706;23.306;2022-07-21T02:34:01;6.10;;;2.92;;
43933;SDS011;59081;42.706;23.306;2022-07-21T02:36:26;3.75;;;2.50;;
43933;SDS011;59081;42.706;23.306;2022-07-21T02:38:52;4.65;;;2.65;;
43933;SDS011;59081;42.706;23.306;2022-07-21T02:41:18;5.65;;;2.70;;
43933;SDS011;59081;42.706;23.306;2022-07-21T02:43:43;7.63;;;3.00;;
43933;SDS011;59081;42.706;23.306;2022-07-21T02:46:08;6.55;;;2.88;;
43933;SDS011;59081;42.706;23.306;2022-07-21T02:48:34;4.63;;;2.28;;
43933;SDS011;59081;42.706;23.306;2022-07-21T02:51:00;3.78;;;2.60;;
43933;SDS011;59081;42.706;23.306;2022-07-21T02:53:25;3.25;;;2.78;;
43933;SDS011;59081;42.706;23.306;2022-07-21T02:55:51;4.55;;;2.60;;
43933;SDS011;59081;42.706;23.306;2022-07-21T02:58:21;4.30;;;2.60;;
43933;SDS011;59081;42.706;23.306;2022-07-21T03:00:55;7.35;;;2.67;;
43933;SDS011;59081;42.706;23.306;2022-07-21T03:03:33;3.92;;;2.03;;
43933;SDS011;59081;42.706;23.306;2022-07-21T03:06:00;3.15;;;2.20;;
43933;SDS011;59081;42.706;23.306;2022-07-21T03:08:27;3.47;;;2.40;;
43933;SDS011;59081;42.706;23.306;2022-07-21T03:10:54;5.95;;;2.40;;
43933;SDS011;59081;42.706;23.306;2022-07-21T03:13:20;3.95;;;2.25;;
43933;SDS011;59081;42.706;23.306;2022-07-21T03:15:46;7.38;;;2.65;;
43933;SDS011;59081;42.706;23.306;2022-07-21T03:18:12;5.65;;;2.65;;
43933;SDS011;59081;42.706;23.306;2022-07-21T03:20:39;4.78;;;2.58;;
43933;SDS011;59081;42.706;23.306;2022-07-21T03:23:05;8.63;;;2.85;;
43933;SDS011;59081;42.706;23.306;2022-07-21T03:25:32;7.13;;;2.72;;
43933;SDS011;59081;42.706;23.306;2022-07-21T03:27:58;5.80;;;2.75;;
43933;SDS011;59081;42.706;23.306;2022-07-21T03:30:23;4.97;;;2.53;;
43933;SDS011;59081;42.706;23.306;2022-07-21T03:32:49;9.85;;;2.92;;
43933;SDS011;59081;42.706;23.306;2022-07-21T03:35:16;10.25;;;3.33;;
43933;SDS011;59081;42.706;23.306;2022-07-21T03:40:12;6.22;;;2.70;;
43933;SDS011;59081;42.706;23.306;2022-07-21T03:42:39;3.60;;;2.40;;
43933;SDS011;59081;42.706;23.306;2022-07-21T03:45:06;8.77;;;2.70;;
43933;SDS011;59081;42.706;23.306;2022-07-21T03:47:32;4.82;;;2.20;;
43933;SDS011;59081;42.706;23.306;2022-07-21T03:49:59;5.53;;;2.55;;
43933;SDS011;59081;42.706;23.306;2022-07-21T03:52:24;6.07;;;2.20;;
43933;SDS011;59081;42.706;23.306;2022-07-21T03:54:50;9.45;;;3.10;;
43933;SDS011;59081;42.706;23.306;2022-07-21T03:57:15;11.15;;;3.10;;
43933;SDS011;59081;42.706;23.306;2022-07-21T03:59:41;6.60;;;3.10;;
43933;SDS011;59081;42.706;23.306;2022-07-21T04:02:06;4.07;;;2.63;;
43933;SDS011;59081;42.706;23.306;2022-07-21T04:04:32;10.80;;;3.03;;
43933;SDS011;59081;42.706;23.306;2022-07-21T04:06:57;8.48;;;3.10;;
43933;SDS011;59081;42.706;23.306;2022-07-21T04:09:23;8.00;;;2.88;;
43933;SDS011;59081;42.706;23.306;2022-07-21T04:11:48;12.52;;;3.25;;
43933;SDS011;59081;42.706;23.306;2022-07-21T04:14:14;4.90;;;2.55;;
43933;SDS011;59081;42.706;23.306;2022-07-21T04:16:39;6.45;;;3.15;;
43933;SDS011;59081;42.706;23.306;2022-07-21T04:19:04;9.07;;;3.28;;
43933;SDS011;59081;42.706;23.306;2022-07-21T04:21:30;6.28;;;3.45;;
43933;SDS011;59081;42.706;23.306;2022-07-21T04:23:56;7.45;;;3.20;;
43933;SDS011;59081;42.706;23.306;2022-07-21T04:26:21;9.20;;;2.80;;
43933;SDS011;59081;42.706;23.306;2022-07-21T04:28:47;5.72;;;2.55;;
43933;SDS011;59081;42.706;23.306;2022-07-21T04:31:12;6.20;;;2.90;;
43933;SDS011;59081;42.706;23.306;2022-07-21T04:33:37;7.78;;;2.60;;
43933;SDS011;59081;42.706;23.306;2022-07-21T04:36:03;7.88;;;2.60;;
43933;SDS011;59081;42.706;23.306;2022-07-21T04:38:29;5.00;;;2.75;;
43933;SDS011;59081;42.706;23.306;2022-07-21T04:40:55;3.40;;;2.65;;
43933;SDS011;59081;42.706;23.306;2022-07-21T04:43:20;10.00;;;3.30;;
43933;SDS011;59081;42.706;23.306;2022-07-21T04:45:46;4.90;;;3.05;;
43933;SDS011;59081;42.706;23.306;2022-07-21T04:48:11;5.93;;;2.92;;
43933;SDS011;59081;42.706;23.306;2022-07-21T04:50:37;10.40;;;3.25;;
43933;SDS011;59081;42.706;23.306;2022-07-21T04:53:02;8.80;;;4.45;;
43933;SDS011;59081;42.706;23.306;2022-07-21T04:55:28;5.28;;;3.53;;
43933;SDS011;59081;42.706;23.306;2022-07-21T04:57:54;9.38;;;3.67;;
43933;SDS011;59081;42.706;23.306;2022-07-21T05:00:20;5.90;;;3.60;;
43933;SDS011;59081;42.706;23.306;2022-07-21T05:02:48;6.28;;;3.67;;
43933;SDS011;59081;42.706;23.306;2022-07-21T05:05:14;6.30;;;3.03;;
43933;SDS011;59081;42.706;23.306;2022-07-21T05:07:39;8.82;;;3.15;;
43933;SDS011;59081;42.706;23.306;2022-07-21T05:10:05;9.27;;;2.85;;
43933;SDS011;59081;42.706;23.306;2022-07-21T05:12:32;12.13;;;3.65;;
43933;SDS011;59081;42.706;23.306;2022-07-21T05:14:58;9.25;;;3.80;;
43933;SDS011;59081;42.706;23.306;2022-07-21T05:17:23;11.25;;;3.15;;
43933;SDS011;59081;42.706;23.306;2022-07-21T05:19:49;8.05;;;3.40;;
43933;SDS011;59081;42.706;23.306;2022-07-21T05:22:16;7.32;;;3.35;;
43933;SDS011;59081;42.706;23.306;2022-07-21T05:24:41;8.52;;;3.17;;
43933;SDS011;59081;42.706;23.306;2022-07-21T05:27:07;6.63;;;3.70;;
43933;SDS011;59081;42.706;23.306;2022-07-21T05:29:32;12.15;;;3.78;;
43933;SDS011;59081;42.706;23.306;2022-07-21T05:31:58;9.90;;;3.65;;
43933;SDS011;59081;42.706;23.306;2022-07-21T05:34:23;4.68;;;2.90;;
43933;SDS011;59081;42.706;23.306;2022-07-21T05:36:49;6.18;;;3.80;;
43933;SDS011;59081;42.706;23.306;2022-07-21T05:39:14;9.02;;;3.70;;
43933;SDS011;59081;42.706;23.306;2022-07-21T05:41:39;7.30;;;3.67;;
43933;SDS011;59081;42.706;23.306;2022-07-21T05:44:05;11.50;;;4.03;;
43933;SDS011;59081;42.706;23.306;2022-07-21T05:46:30;6.88;;;3.70;;
43933;SDS011;59081;42.706;23.306;2022-07-21T05:48:56;12.73;;;4.28;;
43933;SDS011;59081;42.706;23.306;2022-07-21T05:51:21;9.18;;;4.55;;
43933;SDS011;59081;42.706;23.306;2022-07-21T05:53:47;16.63;;;5.68;;
43933;SDS011;59081;42.706;23.306;2022-07-21T05:56:12;18.00;;;7.50;;
43933;SDS011;59081;42.706;23.306;2022-07-21T05:58:38;23.85;;;8.90;;
43933;SDS011;59081;42.706;23.306;2022-07-21T06:01:03;10.93;;;5.13;;
43933;SDS011;59081;42.706;23.306;2022-07-21T06:03:43;17.13;;;5.80;;
43933;SDS011;59081;42.706;23.306;2022-07-21T06:06:15;14.63;;;4.95;;
43933;SDS011;59081;42.706;23.306;2022-07-21T06:08:43;16.05;;;5.63;;
43933;SDS011;59081;42.706;23.306;2022-07-21T06:11:10;15.82;;;5.45;;
43933;SDS011;59081;42.706;23.306;2022-07-21T06:13:38;13.45;;;5.38;;
43933;SDS011;59081;42.706;23.306;2022-07-21T06:16:04;9.80;;;4.25;;
43933;SDS011;59081;42.706;23.306;2022-07-21T06:18:30;17.05;;;4.97;;
43933;SDS011;59081;42.706;23.306;2022-07-21T06:20:55;13.23;;;4.88;;
43933;SDS011;59081;42.706;23.306;2022-07-21T06:23:21;14.18;;;4.70;;
43933;SDS011;59081;42.706;23.306;2022-07-21T06:25:47;10.48;;;4.65;;
43933;SDS011;59081;42.706;23.306;2022-07-21T06:28:13;16.08;;;4.20;;
43933;SDS011;59081;42.706;23.306;2022-07-21T06:30:38;14.05;;;4.32;;
43933;SDS011;59081;42.706;23.306;2022-07-21T06:33:04;16.17;;;4.60;;
43933;SDS011;59081;42.706;23.306;2022-07-21T06:35:29;10.30;;;3.85;;
43933;SDS011;59081;42.706;23.306;2022-07-21T06:37:55;13.55;;;3.95;;
43933;SDS011;59081;42.706;23.306;2022-07-21T06:40:21;12.68;;;5.20;;
43933;SDS011;59081;42.706;23.306;2022-07-21T06:42:46;11.82;;;3.92;;
43933;SDS011;59081;42.706;23.306;2022-07-21T06:45:12;13.50;;;4.32;;
43933;SDS011;59081;42.706;23.306;2022-07-21T06:47:37;12.88;;;4.97;;
43933;SDS011;59081;42.706;23.306;2022-07-21T06:50:03;9.60;;;3.55;;
43933;SDS011;59081;42.706;23.306;2022-07-21T06:52:30;9.48;;;3.63;;
43933;SDS011;59081;42.706;23.306;2022-07-21T06:54:56;8.45;;;4.00;;
43933;SDS011;59081;42.706;23.306;2022-07-21T06:57:21;8.98;;;4.20;;
43933;SDS011;59081;42.706;23.306;2022-07-21T06:59:47;13.25;;;4.35;;
43933;SDS011;59081;42.706;23.306;2022-07-21T07:02:12;12.07;;;4.00;;
43933;SDS011;59081;42.706;23.306;2022-07-21T07:04:38;15.32;;;4.80;;
43933;SDS011;59081;42.706;23.306;2022-07-21T07:07:03;21.63;;;3.72;;
43933;SDS011;59081;42.706;23.306;2022-07-21T07:09:29;13.68;;;4.00;;
43933;SDS011;59081;42.706;23.306;2022-07-21T07:11:55;9.52;;;3.92;;
43933;SDS011;59081;42.706;23.306;2022-07-21T07:14:28;9.25;;;4.05;;
43933;SDS011;59081;42.706;23.306;2022-07-21T07:16:57;15.98;;;4.00;;
43933;SDS011;59081;42.706;23.306;2022-07-21T07:19:24;7.85;;;3.35;;
43933;SDS011;59081;42.706;23.306;2022-07-21T07:21:49;7.57;;;3.53;;
43933;SDS011;59081;42.706;23.306;2022-07-21T07:24:15;13.35;;;3.78;;
43933;SDS011;59081;42.706;23.306;2022-07-21T07:26:41;11.52;;;3.47;;
43933;SDS011;59081;42.706;23.306;2022-07-21T07:29:07;9.50;;;3.15;;
43933;SDS011;59081;42.706;23.306;2022-07-21T07:31:32;8.57;;;3.03;;
43933;SDS011;59081;42.706;23.306;2022-07-21T07:33:58;3.80;;;2.55;;
43933;SDS011;59081;42.706;23.306;2022-07-21T07:36:27;3.10;;;2.45;;
43933;SDS011;59081;42.706;23.306;2022-07-21T07:38:54;6.85;;;2.80;;
43933;SDS011;59081;42.706;23.306;2022-07-21T07:41:22;8.88;;;2.60;;
43933;SDS011;59081;42.706;23.306;2022-07-21T07:43:49;9.65;;;3.90;;
43933;SDS011;59081;42.706;23.306;2022-07-21T07:46:15;5.03;;;2.38;;
43933;SDS011;59081;42.706;23.306;2022-07-21T07:48:40;7.95;;;2.83;;
43933;SDS011;59081;42.706;23.306;2022-07-21T07:51:10;4.80;;;2.60;;
43933;SDS011;59081;42.706;23.306;2022-07-21T07:53:37;8.95;;;2.35;;
43933;SDS011;59081;42.706;23.306;2022-07-21T07:56:04;9.38;;;3.00;;
43933;SDS011;59081;42.706;23.306;2022-07-21T07:58:30;5.35;;;2.70;;
43933;SDS011;59081;42.706;23.306;2022-07-21T08:00:56;4.07;;;2.63;;
43933;SDS011;59081;42.706;23.306;2022-07-21T08:03:22;5.65;;;2.65;;
43933;SDS011;59081;42.706;23.306;2022-07-21T08:05:48;10.55;;;3.83;;
43933;SDS011;59081;42.706;23.306;2022-07-21T08:08:14;4.53;;;2.30;;
43933;SDS011;59081;42.706;23.306;2022-07-21T08:10:40;4.28;;;2.35;;
43933;SDS011;59081;42.706;23.306;2022-07-21T08:13:05;4.05;;;2.67;;
43933;SDS011;59081;42.706;23.306;2022-07-21T08:15:33;5.47;;;2.72;;
43933;SDS011;59081;42.706;23.306;2022-07-21T08:17:59;6.25;;;2.50;;
43933;SDS011;59081;42.706;23.306;2022-07-21T08:20:25;6.32;;;2.03;;
43933;SDS011;59081;42.706;23.306;2022-07-21T08:22:50;5.82;;;2.42;;
43933;SDS011;59081;42.706;23.306;2022-07-21T08:25:16;5.25;;;2.17;;
43933;SDS011;59081;42.706;23.306;2022-07-21T08:27:41;5.82;;;2.38;;
43933;SDS011;59081;42.706;23.306;2022-07-21T08:30:07;3.92;;;2.30;;
43933;SDS011;59081;42.706;23.306;2022-07-21T08:32:33;3.00;;;2.00;;
43933;SDS011;59081;42.706;23.306;2022-07-21T08:34:59;4.38;;;2.30;;
43933;SDS011;59081;42.706;23.306;2022-07-21T08:37:25;5.80;;;2.22;;
43933;SDS011;59081;42.706;23.306;2022-07-21T08:39:50;5.50;;;2.13;;
43933;SDS011;59081;42.706;23.306;2022-07-21T08:42:16;5.38;;;2.00;;
43933;SDS011;59081;42.706;23.306;2022-07-21T08:44:41;7.70;;;2.45;;
43933;SDS011;59081;42.706;23.306;2022-07-21T08:47:07;6.32;;;2.55;;
43933;SDS011;59081;42.706;23.306;2022-07-21T08:49:33;9.98;;;3.33;;
43933;SDS011;59081;42.706;23.306;2022-07-21T08:52:00;8.32;;;2.72;;
43933;SDS011;59081;42.706;23.306;2022-07-21T08:54:26;7.95;;;2.67;;
43933;SDS011;59081;42.706;23.306;2022-07-21T08:56:51;4.25;;;2.33;;
43933;SDS011;59081;42.706;23.306;2022-07-21T08:59:17;5.97;;;2.55;;
43933;SDS011;59081;42.706;23.306;2022-07-21T09:01:43;5.03;;;2.65;;
43933;SDS011;59081;42.706;23.306;2022-07-21T09:09:21;6.47;;;2.55;;
43933;SDS011;59081;42.706;23.306;2022-07-21T09:11:47;7.60;;;2.58;;
43933;SDS011;59081;42.706;23.306;2022-07-21T09:14:14;4.30;;;2.08;;
43933;SDS011;59081;42.706;23.306;2022-07-21T09:16:46;3.13;;;2.47;;
43933;SDS011;59081;42.706;23.306;2022-07-21T09:21:43;6.53;;;2.83;;
43933;SDS011;59081;42.706;23.306;2022-07-21T09:29:26;5.18;;;2.47;;
43933;SDS011;59081;42.706;23.306;2022-07-21T09:32:11;5.35;;;2.17;;
43933;SDS011;59081;42.706;23.306;2022-07-21T09:37:25;4.07;;;2.40;;
43933;SDS011;59081;42.706;23.306;2022-07-21T09:39:52;5.20;;;2.30;;
43933;SDS011;59081;42.706;23.306;2022-07-21T09:42:25;6.03;;;2.65;;
43933;SDS011;59081;42.706;23.306;2022-07-21T09:44:56;2.53;;;2.10;;
43933;SDS011;59081;42.706;23.306;2022-07-21T09:47:24;4.85;;;1.80;;
43933;SDS011;59081;42.706;23.306;2022-07-21T09:49:53;5.05;;;2.45;;
43933;SDS011;59081;42.706;23.306;2022-07-21T09:52:27;2.92;;;1.98;;
43933;SDS011;59081;42.706;23.306;2022-07-21T09:54:55;3.42;;;2.17;;
43933;SDS011;59081;42.706;23.306;2022-07-21T09:57:23;2.72;;;2.22;;
43933;SDS011;59081;42.706;23.306;2022-07-21T09:59:49;5.93;;;2.75;;
43933;SDS011;59081;42.706;23.306;2022-07-21T10:02:18;7.72;;;2.25;;
43933;SDS011;59081;42.706;23.306;2022-07-21T10:04:51;5.18;;;2.80;;
43933;SDS011;59081;42.706;23.306;2022-07-21T10:07:21;3.85;;;2.65;;
43933;SDS011;59081;42.706;23.306;2022-07-21T10:09:47;3.83;;;2.17;;
43933;SDS011;59081;42.706;23.306;2022-07-21T10:12:14;6.15;;;2.50;;
43933;SDS011;59081;42.706;23.306;2022-07-21T10:14:40;6.45;;;2.35;;
43933;SDS011;59081;42.706;23.306;2022-07-21T10:17:07;5.68;;;2.05;;
43933;SDS011;59081;42.706;23.306;2022-07-21T10:19:34;6.50;;;2.05;;
43933;SDS011;59081;42.706;23.306;2022-07-21T10:24:55;6.18;;;2.47;;
43933;SDS011;59081;42.706;23.306;2022-07-21T10:27:20;3.17;;;2.08;;
43933;SDS011;59081;42.706;23.306;2022-07-21T10:32:24;14.50;;;3.10;;
43933;SDS011;59081;42.706;23.306;2022-07-21T10:34:56;4.90;;;2.20;;
43933;SDS011;59081;42.706;23.306;2022-07-21T10:40:49;3.28;;;1.92;;
43933;SDS011;59081;42.706;23.306;2022-07-21T10:45:44;7.43;;;2.25;;
43933;SDS011;59081;42.706;23.306;2022-07-21T10:48:46;4.35;;;2.08;;
43933;SDS011;59081;42.706;23.306;2022-07-21T10:51:08;5.93;;;2.35;;
43933;SDS011;59081;42.706;23.306;2022-07-21T10:53:40;6.07;;;2.35;;
43933;SDS011;59081;42.706;23.306;2022-07-21T10:56:06;5.00;;;2.28;;
43933;SDS011;59081;42.706;23.306;2022-07-21T10:58:39;5.75;;;2.55;;
43933;SDS011;59081;42.706;23.306;2022-07-21T11:03:40;2.70;;;2.35;;
43933;SDS011;59081;42.706;23.306;2022-07-21T11:08:47;4.38;;;2.28;;
43933;SDS011;59081;42.706;23.306;2022-07-21T11:11:22;5.30;;;2.13;;
43933;SDS011;59081;42.706;23.306;2022-07-21T11:14:11;4.50;;;2.15;;
43933;SDS011;59081;42.706;23.306;2022-07-21T11:19:06;10.82;;;2.97;;
43933;SDS011;59081;42.706;23.306;2022-07-21T11:21:51;4.28;;;2.30;;
43933;SDS011;59081;42.706;23.306;2022-07-21T11:24:21;2.83;;;2.22;;
43933;SDS011;59081;42.706;23.306;2022-07-21T11:26:55;2.60;;;2.17;;
43933;SDS011;59081;42.706;23.306;2022-07-21T11:29:31;3.67;;;2.10;;
43933;SDS011;59081;42.706;23.306;2022-07-21T11:31:58;3.83;;;2.25;;
43933;SDS011;59081;42.706;23.306;2022-07-21T11:34:38;4.68;;;2.22;;
43933;SDS011;59081;42.706;23.306;2022-07-21T11:37:05;5.35;;;2.30;;
43933;SDS011;59081;42.706;23.306;2022-07-21T11:39:31;8.30;;;2.20;;
43933;SDS011;59081;42.706;23.306;2022-07-21T11:42:01;3.40;;;2.22;;
43933;SDS011;59081;42.706;23.306;2022-07-21T11:44:34;5.90;;;2.28;;
43933;SDS011;59081;42.706;23.306;2022-07-21T11:47:01;9.52;;;2.40;;
43933;SDS011;59081;42.706;23.306;2022-07-21T11:49:28;6.22;;;2.50;;
43933;SDS011;59081;42.706;23.306;2022-07-21T11:52:10;5.43;;;2.80;;
43933;SDS011;59081;42.706;23.306;2022-07-21T11:54:38;9.98;;;2.45;;
43933;SDS011;59081;42.706;23.306;2022-07-21T11:57:10;6.20;;;2.80;;
43933;SDS011;59081;42.706;23.306;2022-07-21T11:59:36;5.22;;;2.70;;
43933;SDS011;59081;42.706;23.306;2022-07-21T12:02:09;8.55;;;3.13;;
43933;SDS011;59081;42.706;23.306;2022-07-21T12:07:26;5.55;;;2.70;;
43933;SDS011;59081;42.706;23.306;2022-07-21T12:09:52;3.22;;;2.75;;
43933;SDS011;59081;42.706;23.306;2022-07-21T12:12:27;3.03;;;2.33;;
43933;SDS011;59081;42.706;23.306;2022-07-21T12:14:53;5.43;;;2.40;;
43933;SDS011;59081;42.706;23.306;2022-07-21T12:17:41;4.93;;;2.72;;
43933;SDS011;59081;42.706;23.306;2022-07-21T12:23:01;6.20;;;2.50;;
43933;SDS011;59081;42.706;23.306;2022-07-21T12:25:37;4.05;;;2.55;;
43933;SDS011;59081;42.706;23.306;2022-07-21T12:28:05;6.22;;;2.20;;
43933;SDS011;59081;42.706;23.306;2022-07-21T12:30:39;5.32;;;2.45;;
43933;SDS011;59081;42.706;23.306;2022-07-21T12:35:41;4.68;;;2.20;;
43933;SDS011;59081;42.706;23.306;2022-07-21T12:38:15;3.72;;;2.00;;
43933;SDS011;59081;42.706;23.306;2022-07-21T12:40:45;5.78;;;2.65;;
43933;SDS011;59081;42.706;23.306;2022-07-21T12:43:16;3.60;;;2.20;;
43933;SDS011;59081;42.706;23.306;2022-07-21T12:48:43;2.55;;;1.75;;
43933;SDS011;59081;42.706;23.306;2022-07-21T12:51:11;7.03;;;2.30;;
43933;SDS011;59081;42.706;23.306;2022-07-21T12:53:50;6.07;;;2.58;;
43933;SDS011;59081;42.706;23.306;2022-07-21T12:56:20;6.95;;;2.53;;
43933;SDS011;59081;42.706;23.306;2022-07-21T12:58:55;3.60;;;2.30;;
43933;SDS011;59081;42.706;23.306;2022-07-21T13:01:23;5.97;;;2.28;;
43933;SDS011;59081;42.706;23.306;2022-07-21T13:03:49;3.70;;;1.90;;
43933;SDS011;59081;42.706;23.306;2022-07-21T13:06:16;3.03;;;2.30;;
43933;SDS011;59081;42.706;23.306;2022-07-21T13:08:42;2.67;;;1.95;;
43933;SDS011;59081;42.706;23.306;2022-07-21T13:11:10;2.55;;;1.90;;
43933;SDS011;59081;42.706;23.306;2022-07-21T13:13:38;4.50;;;2.10;;
43933;SDS011;59081;42.706;23.306;2022-07-21T13:16:04;5.57;;;2.10;;
43933;SDS011;59081;42.706;23.306;2022-07-21T13:18:30;4.85;;;2.67;;
43933;SDS011;59081;42.706;23.306;2022-07-21T13:20:56;4.82;;;2.33;;
43933;SDS011;59081;42.706;23.306;2022-07-21T13:23:22;5.50;;;2.00;;
43933;SDS011;59081;42.706;23.306;2022-07-21T13:25:47;6.03;;;2.22;;
43933;SDS011;59081;42.706;23.306;2022-07-21T13:28:14;4.57;;;2.20;;
43933;SDS011;59081;42.706;23.306;2022-07-21T13:30:40;4.00;;;2.15;;
43933;SDS011;59081;42.706;23.306;2022-07-21T13:33:05;5.65;;;2.17;;
43933;SDS011;59081;42.706;23.306;2022-07-21T13:35:31;3.45;;;1.88;;
43933;SDS011;59081;42.706;23.306;2022-07-21T13:37:57;6.75;;;2.60;;
43933;SDS011;59081;42.706;23.306;2022-07-21T13:40:23;5.85;;;1.90;;
43933;SDS011;59081;42.706;23.306;2022-07-21T13:42:51;6.20;;;2.38;;
43933;SDS011;59081;42.706;23.306;2022-07-21T13:45:17;4.15;;;2.17;;
43933;SDS011;59081;42.706;23.306;2022-07-21T13:47:42;4.25;;;2.05;;
43933;SDS011;59081;42.706;23.306;2022-07-21T13:50:08;11.73;;;3.13;;
43933;SDS011;59081;42.706;23.306;2022-07-21T13:52:34;5.13;;;2.22;;
43933;SDS011;59081;42.706;23.306;2022-07-21T13:55:03;5.40;;;2.15;;
43933;SDS011;59081;42.706;23.306;2022-07-21T13:57:29;8.70;;;2.13;;
43933;SDS011;59081;42.706;23.306;2022-07-21T13:59:54;6.45;;;2.55;;
43933;SDS011;59081;42.706;23.306;2022-07-21T14:02:20;8.65;;;2.88;;
43933;SDS011;59081;42.706;23.306;2022-07-21T14:04:48;11.85;;;2.50;;
43933;SDS011;59081;42.706;23.306;2022-07-21T14:07:14;5.28;;;2.28;;
43933;SDS011;59081;42.706;23.306;2022-07-21T14:09:40;9.82;;;2.55;;
43933;SDS011;59081;42.706;23.306;2022-07-21T14:12:06;7.70;;;2.15;;
43933;SDS011;59081;42.706;23.306;2022-07-21T14:14:32;5.53;;;2.42;;
43933;SDS011;59081;42.706;23.306;2022-07-21T14:16:58;5.13;;;2.40;;
43933;SDS011;59081;42.706;23.306;2022-07-21T14:19:23;4.68;;;2.40;;
43933;SDS011;59081;42.706;23.306;2022-07-21T14:21:49;5.63;;;2.22;;
43933;SDS011;59081;42.706;23.306;2022-07-21T14:24:15;5.18;;;2.20;;
43933;SDS011;59081;42.706;23.306;2022-07-21T14:26:59;2.42;;;1.95;;
43933;SDS011;59081;42.706;23.306;2022-07-21T14:29:25;5.40;;;2.28;;
43933;SDS011;59081;42.706;23.306;2022-07-21T14:31:51;3.78;;;2.20;;
43933;SDS011;59081;42.706;23.306;2022-07-21T14:34:16;3.80;;;2.30;;
43933;SDS011;59081;42.706;23.306;2022-07-21T14:36:42;5.90;;;2.70;;
43933;SDS011;59081;42.706;23.306;2022-07-21T14:39:08;4.20;;;1.80;;
43933;SDS011;59081;42.706;23.306;2022-07-21T14:41:34;4.10;;;1.90;;
43933;SDS011;59081;42.706;23.306;2022-07-21T14:44:00;6.15;;;2.33;;
43933;SDS011;59081;42.706;23.306;2022-07-21T14:46:26;5.32;;;2.60;;
43933;SDS011;59081;42.706;23.306;2022-07-21T14:48:52;6.78;;;2.53;;
43933;SDS011;59081;42.706;23.306;2022-07-21T14:51:17;3.70;;;2.17;;
43933;SDS011;59081;42.706;23.306;2022-07-21T14:53:43;4.18;;;2.10;;
43933;SDS011;59081;42.706;23.306;2022-07-21T14:56:09;4.28;;;2.22;;
43933;SDS011;59081;42.706;23.306;2022-07-21T14:58:34;8.70;;;2.47;;
43933;SDS011;59081;42.706;23.306;2022-07-21T15:01:00;12.70;;;3.03;;
43933;SDS011;59081;42.706;23.306;2022-07-21T15:03:25;8.88;;;2.45;;
43933;SDS011;59081;42.706;23.306;2022-07-21T15:05:51;5.15;;;2.42;;
43933;SDS011;59081;42.706;23.306;2022-07-21T15:08:17;4.63;;;2.05;;
43933;SDS011;59081;42.706;23.306;2022-07-21T15:10:43;5.43;;;2.50;;
43933;SDS011;59081;42.706;23.306;2022-07-21T15:13:09;14.30;;;2.58;;
43933;SDS011;59081;42.706;23.306;2022-07-21T15:15:34;3.33;;;2.03;;
43933;SDS011;59081;42.706;23.306;2022-07-21T15:18:03;7.47;;;3.13;;
43933;SDS011;59081;42.706;23.306;2022-07-21T15:20:29;5.72;;;2.13;;
43933;SDS011;59081;42.706;23.306;2022-07-21T15:22:55;5.78;;;2.22;;